createdAt,value
2022-12-26T00:01:44.857Z,16.83
2022-12-26T00:04:50.597Z,15.30
2022-12-26T00:07:02.272Z,17.73
2022-12-26T00:09:29.139Z,18.83
2022-12-26T00:11:56.255Z,18.97
2022-12-26T00:14:24.146Z,18.00
2022-12-26T00:16:51.087Z,17.97
2022-12-26T00:19:17.973Z,14.50
2022-12-26T00:21:44.760Z,15.90
2022-12-26T00:24:12.353Z,14.70
2022-12-26T00:26:39.460Z,12.17
2022-12-26T00:29:06.607Z,10.93
2022-12-26T00:31:35.486Z,11.70
2022-12-26T00:34:03.766Z,11.37
2022-12-26T00:36:34.036Z,11.67
2022-12-26T00:39:03.077Z,10.67
2022-12-26T00:41:30.571Z,10.03
2022-12-26T00:43:58.301Z,9.60
2022-12-26T00:46:26.872Z,11.73
2022-12-26T00:48:54.564Z,10.67
2022-12-26T00:51:22.018Z,10.13
2022-12-26T00:53:49.061Z,9.30
2022-12-26T00:56:16.509Z,11.70
2022-12-26T00:58:43.826Z,12.07
2022-12-26T01:01:15.270Z,10.53
2022-12-26T01:03:43.891Z,11.07
2022-12-26T01:06:11.328Z,12.03
2022-12-26T01:08:38.101Z,11.17
2022-12-26T01:11:11.676Z,13.00
2022-12-26T01:13:39.254Z,12.70
2022-12-26T01:16:07.425Z,15.23
2022-12-26T01:18:35.323Z,15.43
2022-12-26T01:21:05.453Z,14.43
2022-12-26T01:23:32.260Z,14.33
2022-12-26T01:26:16.873Z,15.40
2022-12-26T01:28:45.633Z,15.73
2022-12-26T01:31:12.466Z,14.97
2022-12-26T01:33:39.285Z,14.17
2022-12-26T01:36:06.449Z,14.20
2022-12-26T01:38:33.345Z,15.10
2022-12-26T01:41:20.319Z,13.13
2022-12-26T01:43:55.528Z,13.57
2022-12-26T01:46:45.556Z,15.33
2022-12-26T01:49:28.014Z,14.43
2022-12-26T01:51:59.974Z,13.93
2022-12-26T01:54:41.456Z,15.00
2022-12-26T01:57:24.616Z,13.47
2022-12-26T01:59:52.878Z,14.20
2022-12-26T02:02:22.277Z,14.23
2022-12-26T02:05:11.279Z,13.43
2022-12-26T02:07:46.222Z,12.73
2022-12-26T02:10:23.456Z,12.97
2022-12-26T02:12:51.232Z,10.93
2022-12-26T02:15:19.293Z,10.23
2022-12-26T02:17:46.917Z,10.37
2022-12-26T02:20:19.222Z,11.60
2022-12-26T02:23:07.550Z,9.77
2022-12-26T02:26:22.569Z,10.30
2022-12-26T02:29:10.619Z,10.13
2022-12-26T02:31:55.749Z,9.37
2022-12-26T02:34:31.739Z,10.83
2022-12-26T02:37:26.407Z,10.57
2022-12-26T02:40:38.325Z,9.23
2022-12-26T02:43:40.608Z,10.20
2022-12-26T02:46:45.128Z,10.70
2022-12-26T02:49:18.517Z,13.03
2022-12-26T02:52:36.263Z,10.63
2022-12-26T02:55:45.313Z,11.37
2022-12-26T02:58:40.623Z,12.33
2022-12-26T03:01:36.791Z,9.57
2022-12-26T03:04:28.063Z,10.53
2022-12-26T03:07:17.068Z,10.90
2022-12-26T03:10:05.129Z,9.43
2022-12-26T03:13:12.907Z,9.77
2022-12-26T03:16:13.738Z,9.17
2022-12-26T03:18:59.096Z,10.20
2022-12-26T03:21:33.083Z,10.80
2022-12-26T03:24:00.233Z,10.67
2022-12-26T03:26:42.670Z,9.53
2022-12-26T03:29:34.551Z,10.33
2022-12-26T03:32:03.942Z,9.30
2022-12-26T03:34:31.030Z,10.17
2022-12-26T03:37:19.770Z,9.13
2022-12-26T03:40:33.115Z,10.23
2022-12-26T03:43:37.439Z,9.87
2022-12-26T03:46:22.757Z,9.13
2022-12-26T03:49:29.858Z,10.20
2022-12-26T03:52:24.014Z,9.40
2022-12-26T03:55:26.144Z,9.00
2022-12-26T03:58:28.825Z,9.27
2022-12-26T04:01:17.101Z,8.90
2022-12-26T04:04:04.234Z,9.27
2022-12-26T04:07:02.359Z,9.27
2022-12-26T04:09:58.456Z,8.67
2022-12-26T04:12:48.218Z,10.00
2022-12-26T04:15:44.503Z,11.13
2022-12-26T04:18:41.319Z,10.33
2022-12-26T04:21:38.978Z,9.97
2022-12-26T04:24:39.887Z,11.80
2022-12-26T04:27:32.201Z,11.07
2022-12-26T04:30:17.768Z,11.03
2022-12-26T04:33:06.938Z,10.93
2022-12-26T04:36:09.712Z,11.27
2022-12-26T04:39:08.789Z,10.57
2022-12-26T04:41:54.974Z,11.23
2022-12-26T04:44:24.608Z,11.27
2022-12-26T04:46:53.667Z,10.47
2022-12-26T04:49:39.312Z,11.33
2022-12-26T04:52:12.018Z,12.37
2022-12-26T04:54:39.581Z,13.10
2022-12-26T04:57:07.433Z,10.90
2022-12-26T04:59:35.002Z,12.03
2022-12-26T05:02:20.450Z,12.67
2022-12-26T05:05:05.758Z,13.53
2022-12-26T05:07:56.343Z,14.00
2022-12-26T05:10:26.138Z,13.50
2022-12-26T05:12:53.874Z,12.90
2022-12-26T05:15:21.724Z,13.70
2022-12-26T05:18:07.644Z,12.37
2022-12-26T05:20:46.584Z,14.03
2022-12-26T05:23:44.262Z,14.57
2022-12-26T05:26:35.788Z,14.13
2022-12-26T05:29:04.071Z,12.80
2022-12-26T05:31:35.923Z,14.00
2022-12-26T05:34:12.949Z,13.40
2022-12-26T05:36:44.248Z,12.57
2022-12-26T05:39:11.211Z,14.07
2022-12-26T05:41:38.878Z,12.97
2022-12-26T05:44:06.273Z,12.30
2022-12-26T05:46:33.656Z,12.13
2022-12-26T05:49:01.127Z,11.00
2022-12-26T05:51:28.061Z,12.50
2022-12-26T05:53:55.103Z,12.47
2022-12-26T05:56:21.971Z,11.33
2022-12-26T05:58:57.986Z,12.23
2022-12-26T06:01:25.495Z,11.63
2022-12-26T06:03:55.680Z,11.30
2022-12-26T06:06:25.095Z,11.53
2022-12-26T06:08:53.794Z,11.70
2022-12-26T06:11:21.263Z,11.73
2022-12-26T06:13:48.207Z,11.97
2022-12-26T06:16:17.254Z,11.67
2022-12-26T06:18:44.735Z,11.80
2022-12-26T06:21:14.399Z,14.77
2022-12-26T06:23:42.816Z,14.27
2022-12-26T06:26:10.553Z,12.87
2022-12-26T06:28:37.523Z,12.27
2022-12-26T06:31:09.392Z,13.33
2022-12-26T06:33:36.885Z,13.57
2022-12-26T06:36:08.952Z,13.53
2022-12-26T06:38:36.605Z,13.80
2022-12-26T06:41:10.410Z,14.43
2022-12-26T06:43:38.420Z,15.47
2022-12-26T06:46:06.913Z,14.40
2022-12-26T06:48:39.621Z,15.07
2022-12-26T06:51:10.153Z,13.63
2022-12-26T06:53:37.347Z,14.43
2022-12-26T06:56:14.446Z,13.63
2022-12-26T06:58:41.599Z,15.53
2022-12-26T07:01:12.059Z,14.57
2022-12-26T07:03:43.300Z,14.07
2022-12-26T07:06:26.340Z,15.93
2022-12-26T07:08:55.413Z,13.63
2022-12-26T07:11:24.918Z,13.50
2022-12-26T07:13:54.816Z,14.57
2022-12-26T07:16:22.446Z,14.70
2022-12-26T07:18:49.413Z,13.20
2022-12-26T07:21:16.419Z,14.53
2022-12-26T07:23:43.737Z,15.10
2022-12-26T07:26:11.006Z,13.73
2022-12-26T07:28:38.118Z,16.53
2022-12-26T07:31:05.705Z,14.67
2022-12-26T07:33:35.682Z,14.57
2022-12-26T07:36:05.172Z,15.63
2022-12-26T07:38:33.691Z,16.13
2022-12-26T07:41:21.285Z,18.77
2022-12-26T07:43:48.082Z,19.47
2022-12-26T07:46:15.211Z,18.10
2022-12-26T07:48:43.792Z,20.53
2022-12-26T07:51:11.075Z,18.23
2022-12-26T07:53:38.325Z,20.53
2022-12-26T07:56:05.399Z,20.57
2022-12-26T07:58:32.219Z,20.33
2022-12-26T08:03:45.132Z,23.53
2022-12-26T08:06:12.469Z,19.43
2022-12-26T08:08:41.099Z,21.30
2022-12-26T08:11:14.800Z,20.97
2022-12-26T08:13:41.861Z,19.23
2022-12-26T08:16:10.748Z,23.63
2022-12-26T08:18:37.710Z,28.30
2022-12-26T08:21:04.676Z,23.17
2022-12-26T08:23:31.674Z,22.37
2022-12-26T08:25:58.626Z,22.33
2022-12-26T08:28:25.986Z,21.77
2022-12-26T08:30:52.993Z,22.53
2022-12-26T08:33:20.389Z,20.97
2022-12-26T08:35:51.207Z,23.70
2022-12-26T08:41:00.259Z,21.30
2022-12-26T08:43:52.836Z,25.17
2022-12-26T08:46:14.400Z,24.47
2022-12-26T08:51:29.030Z,26.87
2022-12-26T08:54:08.171Z,27.33
2022-12-26T08:56:38.393Z,32.23
2022-12-26T08:59:20.371Z,30.77
2022-12-26T09:01:48.009Z,28.50
2022-12-26T09:04:15.579Z,30.50
2022-12-26T09:06:45.367Z,26.57
2022-12-26T09:09:16.783Z,23.60
2022-12-26T09:11:49.664Z,30.60
2022-12-26T09:14:16.369Z,30.83
2022-12-26T09:16:50.331Z,30.47
2022-12-26T09:19:21.446Z,26.97
2022-12-26T09:27:05.127Z,28.57
2022-12-26T09:32:10.761Z,33.60
2022-12-26T09:34:38.934Z,35.10
2022-12-26T09:37:06.097Z,28.00
2022-12-26T09:42:37.504Z,23.37
2022-12-26T09:45:19.054Z,23.37
2022-12-26T09:48:21.581Z,26.87
2022-12-26T09:50:54.896Z,34.27
2022-12-26T09:57:01.683Z,27.30
2022-12-26T09:59:29.746Z,23.77
2022-12-26T10:01:56.765Z,31.90
2022-12-26T10:04:37.218Z,42.43
2022-12-26T10:07:44.829Z,37.93
2022-12-26T10:10:40.746Z,32.10
2022-12-26T10:13:32.951Z,25.80
2022-12-26T10:16:23.284Z,24.07
2022-12-26T10:19:32.531Z,22.77
2022-12-26T10:22:32.572Z,19.00
2022-12-26T10:25:33.623Z,20.17
2022-12-26T10:28:37.498Z,18.07
2022-12-26T10:34:22.201Z,16.87
2022-12-26T10:36:54.519Z,17.80
2022-12-26T10:39:47.803Z,18.00
2022-12-26T10:42:43.842Z,21.10
2022-12-26T10:45:35.434Z,18.60
2022-12-26T10:48:24.193Z,17.03
2022-12-26T10:51:00.732Z,17.47
2022-12-26T10:53:44.930Z,19.47
2022-12-26T10:56:35.160Z,18.33
2022-12-26T10:59:14.264Z,18.77
2022-12-26T11:10:20.358Z,18.90
2022-12-26T11:13:00.799Z,19.57
2022-12-26T11:15:48.692Z,20.07
2022-12-26T11:18:47.476Z,17.40
2022-12-26T11:21:41.870Z,17.37
2022-12-26T11:24:24.997Z,16.90
2022-12-26T11:27:39.538Z,17.20
2022-12-26T11:30:39.529Z,20.43
2022-12-26T11:33:15.398Z,19.93
2022-12-26T11:36:12.129Z,16.93
2022-12-26T11:38:59.338Z,17.43
2022-12-26T11:42:02.453Z,18.57
2022-12-26T11:44:41.408Z,19.70
2022-12-26T11:47:15.261Z,20.33
2022-12-26T11:49:54.850Z,19.47
2022-12-26T11:52:40.338Z,18.13
2022-12-26T11:55:22.693Z,16.43
2022-12-26T11:58:11.676Z,16.63
2022-12-26T12:00:41.379Z,19.57
2022-12-26T12:03:18.813Z,18.33
2022-12-26T12:06:13.508Z,15.27
2022-12-26T12:08:59.632Z,15.77
2022-12-26T12:11:55.330Z,15.80
2022-12-26T12:14:57.643Z,13.03
2022-12-26T12:18:03.379Z,17.13
2022-12-26T12:20:38.073Z,13.03
2022-12-26T12:23:04.932Z,15.60
2022-12-26T12:25:54.287Z,13.50
2022-12-26T12:28:40.629Z,12.80
2022-12-26T12:31:27.523Z,14.67
2022-12-26T12:34:14.618Z,12.60
2022-12-26T12:36:56.147Z,16.57
2022-12-26T12:39:44.461Z,12.00
2022-12-26T12:42:29.321Z,9.23
2022-12-26T12:45:27.346Z,13.63
2022-12-26T12:48:32.200Z,10.53
2022-12-26T12:51:23.052Z,8.40
2022-12-26T12:53:49.785Z,8.73
2022-12-26T12:56:49.523Z,7.03
2022-12-26T12:59:31.361Z,8.10
2022-12-26T13:02:13.920Z,6.77
2022-12-26T13:04:48.211Z,3.77
2022-12-26T13:07:29.397Z,6.50
2022-12-26T13:10:00.699Z,6.63
2022-12-26T13:12:36.392Z,4.90
2022-12-26T13:15:09.367Z,7.13
2022-12-26T13:18:13.462Z,3.80
2022-12-26T13:20:48.999Z,5.10
2022-12-26T13:24:07.256Z,4.40
2022-12-26T13:26:50.494Z,2.83
2022-12-26T13:29:32.309Z,2.67
2022-12-26T13:32:00.614Z,12.37
2022-12-26T13:34:28.486Z,7.57
2022-12-26T13:36:57.176Z,3.97
2022-12-26T13:39:23.935Z,4.23
2022-12-26T13:42:16.852Z,8.37
2022-12-26T13:44:46.552Z,5.13
2022-12-26T13:47:44.883Z,6.67
2022-12-26T13:50:49.974Z,10.10
2022-12-26T13:53:26.235Z,5.83
2022-12-26T13:55:54.307Z,12.37
2022-12-26T13:58:31.956Z,10.37
2022-12-26T14:01:23.276Z,8.63
2022-12-26T14:04:22.375Z,7.23
2022-12-26T14:07:26.819Z,7.77
2022-12-26T14:10:37.576Z,10.80
2022-12-26T14:13:24.533Z,11.50
2022-12-26T14:15:57.251Z,6.73
2022-12-26T14:18:30.308Z,7.47
2022-12-26T14:21:22.203Z,8.43
2022-12-26T14:23:56.388Z,4.47
2022-12-26T14:26:39.992Z,8.60
2022-12-26T14:29:15.384Z,9.53
2022-12-26T14:32:06.780Z,13.77
2022-12-26T14:34:49.823Z,8.13
2022-12-26T14:37:48.686Z,10.07
2022-12-26T14:40:34.930Z,10.90
2022-12-26T14:43:10.697Z,8.90
2022-12-26T14:45:42.906Z,12.07
2022-12-26T14:48:29.895Z,11.73
2022-12-26T14:51:16.615Z,10.47
2022-12-26T14:53:46.244Z,10.13
2022-12-26T14:56:19.052Z,8.47
2022-12-26T14:58:47.742Z,12.40
2022-12-26T15:01:18.253Z,5.77
2022-12-26T15:04:17.089Z,8.17
2022-12-26T15:06:49.911Z,7.63
2022-12-26T15:10:07.791Z,11.07
2022-12-26T15:13:05.423Z,14.90
2022-12-26T15:15:52.034Z,20.13
2022-12-26T15:19:01.500Z,12.30
2022-12-26T15:22:00.062Z,11.60
2022-12-26T15:25:20.028Z,10.03
2022-12-26T15:28:27.003Z,9.87
2022-12-26T15:31:11.960Z,16.30
2022-12-26T15:34:27.031Z,16.03
2022-12-26T15:37:08.345Z,15.50
2022-12-26T15:39:46.853Z,15.93
2022-12-26T15:42:43.774Z,14.57
2022-12-26T15:45:43.924Z,8.80
2022-12-26T15:48:25.442Z,20.40
2022-12-26T15:51:05.205Z,15.37
2022-12-26T15:54:08.893Z,11.77
2022-12-26T15:57:07.357Z,17.73
2022-12-26T16:00:10.137Z,10.27
2022-12-26T16:03:15.712Z,13.57
2022-12-26T16:05:51.068Z,14.10
2022-12-26T16:08:17.750Z,9.50
2022-12-26T16:10:49.989Z,13.70
2022-12-26T16:13:25.364Z,12.47
2022-12-26T16:15:56.906Z,10.47
2022-12-26T16:18:27.582Z,16.77
2022-12-26T16:21:18.260Z,13.07
2022-12-26T16:23:47.141Z,13.70
2022-12-26T16:26:26.488Z,16.10
2022-12-26T16:28:54.614Z,18.03
2022-12-26T16:31:25.107Z,14.77
2022-12-26T16:33:53.710Z,13.13
2022-12-26T16:36:23.487Z,16.77
2022-12-26T16:38:54.139Z,18.73
2022-12-26T16:41:23.993Z,14.23
2022-12-26T16:43:52.452Z,13.73
2022-12-26T16:46:22.720Z,18.57
2022-12-26T16:48:56.192Z,19.57
2022-12-26T16:51:43.940Z,13.93
2022-12-26T16:54:22.395Z,15.17
2022-12-26T16:56:58.483Z,14.97
2022-12-26T16:59:31.230Z,16.77
2022-12-26T17:02:00.491Z,13.40
2022-12-26T17:04:29.200Z,15.03
2022-12-26T17:07:08.371Z,10.93
2022-12-26T17:09:49.864Z,11.30
2022-12-26T17:12:27.747Z,15.23
2022-12-26T17:14:56.987Z,14.03
2022-12-26T17:17:23.837Z,10.10
2022-12-26T17:19:58.880Z,14.47
2022-12-26T17:28:08.346Z,12.87
2022-12-26T17:30:37.703Z,14.60
2022-12-26T17:33:17.124Z,11.87
2022-12-26T17:36:38.600Z,13.33
2022-12-26T17:38:36.555Z,14.30
2022-12-26T17:41:05.644Z,13.63
2022-12-26T17:43:33.878Z,11.63
2022-12-26T17:46:01.676Z,15.80
2022-12-26T17:48:29.866Z,19.67
2022-12-26T17:51:00.841Z,9.67
2022-12-26T17:53:38.307Z,16.10
2022-12-26T17:56:15.388Z,17.17
2022-12-26T17:58:43.104Z,24.17
2022-12-26T18:01:18.977Z,12.60
2022-12-26T18:03:49.745Z,11.23
2022-12-26T18:06:17.534Z,15.97
2022-12-26T18:08:46.250Z,10.97
2022-12-26T18:11:15.937Z,11.17
2022-12-26T18:13:49.443Z,13.00
2022-12-26T18:16:25.451Z,20.30
2022-12-26T18:19:02.183Z,12.47
2022-12-26T18:21:30.009Z,12.93
